Time;durP1;ratioP1;P1;durP2;ratioP2;P2;SDS_P1;SDS_P2;PMS_P1;PMS_P2;Temp;Humidity;BMP_temperature;BMP_pressure;BME280_temperature;BME280_humidity;BME280_pressure;Samples;Min_cycle;Max_cycle;Signal;HPM_P1;HPM_P2
2022/10/20 00:00:14;;;;;;;12.47;6.80;;;12.00;99.90;;;;;;5054641;28;20205;-58
2022/10/20 00:02:41;;;;;;;9.83;7.43;;;12.00;99.90;;;;;;5054421;28;20608;-58
2022/10/20 00:05:09;;;;;;;8.17;7.13;;;11.90;99.90;;;;;;5054151;28;20209;-60
2022/10/20 00:07:37;;;;;;;10.10;7.90;;;11.90;99.90;;;;;;5054136;28;20209;-58
2022/10/20 00:10:04;;;;;;;9.53;7.97;;;11.80;99.90;;;;;;5054765;28;20585;-59
2022/10/20 00:12:31;;;;;;;10.67;7.60;;;11.80;99.90;;;;;;5055680;28;20217;-57
2022/10/20 00:14:57;;;;;;;9.67;7.97;;;11.90;99.90;;;;;;5055127;28;20206;-58
2022/10/20 00:17:24;;;;;;;10.13;7.43;;;12.00;99.90;;;;;;5054524;28;20209;-58
2022/10/20 00:19:51;;;;;;;13.63;7.83;;;12.10;99.90;;;;;;5054878;28;20208;-57
2022/10/20 00:22:18;;;;;;;9.00;7.33;;;12.20;99.90;;;;;;5054304;28;20240;-58
2022/10/20 00:24:46;;;;;;;9.20;7.37;;;12.30;99.90;;;;;;5053894;28;20210;-58
2022/10/20 00:27:12;;;;;;;8.97;7.57;;;12.30;99.90;;;;;;5054333;28;20212;-60
2022/10/20 00:29:39;;;;;;;9.30;7.70;;;12.30;99.90;;;;;;5054567;28;20218;-58
2022/10/20 00:32:06;;;;;;;10.40;7.43;;;12.30;99.90;;;;;;5054104;28;20721;-58
2022/10/20 00:34:33;;;;;;;11.83;7.93;;;12.30;99.90;;;;;;5053658;28;20682;-58
2022/10/20 00:37:00;;;;;;;10.30;7.60;;;12.30;99.90;;;;;;5054085;28;20209;-59
2022/10/20 00:39:26;;;;;;;16.50;8.17;;;12.30;99.90;;;;;;5054599;28;20220;-58
2022/10/20 00:41:54;;;;;;;11.60;8.10;;;12.30;99.90;;;;;;5054081;28;20238;-58
2022/10/20 00:44:47;;;;;;;9.23;7.70;;;12.30;99.90;;;;;;5053803;28;20205;-58
2022/10/20 00:47:19;;;;;;;10.73;7.80;;;12.30;99.90;;;;;;5054859;28;20244;-59
2022/10/20 00:49:47;;;;;;;10.37;7.80;;;12.30;99.90;;;;;;5054320;28;20230;-57
2022/10/20 00:52:17;;;;;;;11.00;8.20;;;12.30;99.90;;;;;;5053327;28;20229;-58
2022/10/20 00:54:44;;;;;;;10.43;7.90;;;12.30;99.90;;;;;;5052948;28;20206;-59
2022/10/20 00:57:12;;;;;;;9.40;7.87;;;12.30;99.90;;;;;;5053450;28;20209;-59
2022/10/20 00:59:40;;;;;;;10.30;8.07;;;12.30;99.90;;;;;;5053292;28;20214;-58
2022/10/20 01:02:09;;;;;;;10.43;7.70;;;12.10;99.90;;;;;;5053133;28;20233;-58
2022/10/20 01:04:37;;;;;;;11.00;7.70;;;12.10;99.90;;;;;;5052352;28;20672;-58
2022/10/20 01:07:04;;;;;;;10.03;7.87;;;12.10;99.90;;;;;;5053108;28;20218;-58
2022/10/20 01:09:32;;;;;;;11.67;7.93;;;12.00;99.90;;;;;;5053152;28;20585;-58
2022/10/20 01:12:09;;;;;;;11.57;7.40;;;12.00;99.90;;;;;;5052665;28;20230;-58
2022/10/20 01:14:43;;;;;;;11.03;7.97;;;12.00;99.90;;;;;;5052300;28;20202;-57
2022/10/20 01:17:22;;;;;;;13.80;9.07;;;12.00;99.90;;;;;;5052657;28;20213;-57
2022/10/20 01:20:25;;;;;;;11.17;7.93;;;11.90;99.90;;;;;;5052439;28;20750;-58
2022/10/20 01:23:15;;;;;;;10.30;7.90;;;11.90;99.90;;;;;;5052501;28;20233;-58
2022/10/20 01:25:56;;;;;;;14.47;8.43;;;12.00;99.90;;;;;;5052027;28;20700;-58
2022/10/20 01:28:31;;;;;;;12.07;8.60;;;12.00;99.90;;;;;;5052806;28;20599;-58
2022/10/20 01:31:01;;;;;;;12.47;8.63;;;12.10;99.90;;;;;;5052671;28;20629;-57
2022/10/20 01:33:35;;;;;;;14.90;8.57;;;12.20;99.90;;;;;;5052679;28;20222;-58
2022/10/20 01:36:07;;;;;;;10.93;8.67;;;12.20;99.90;;;;;;5052277;28;20215;-57
2022/10/20 01:38:40;;;;;;;12.70;8.80;;;12.20;99.90;;;;;;5052970;28;20685;-58
2022/10/20 01:41:14;;;;;;;10.13;8.67;;;12.20;99.90;;;;;;5053163;28;20573;-58
2022/10/20 01:43:45;;;;;;;10.90;8.93;;;12.30;99.90;;;;;;5054936;28;20201;-58
2022/10/20 01:46:14;;;;;;;12.33;9.07;;;12.40;99.90;;;;;;5054965;28;20209;-59
2022/10/20 01:48:42;;;;;;;10.60;8.70;;;12.40;99.90;;;;;;5055318;28;20212;-59
2022/10/20 01:51:09;;;;;;;9.97;7.87;;;12.30;99.90;;;;;;5055538;28;20217;-59
2022/10/20 01:53:37;;;;;;;10.53;8.47;;;12.30;99.90;;;;;;5055300;28;20209;-60
2022/10/20 01:56:04;;;;;;;12.47;8.73;;;12.30;99.90;;;;;;5054143;28;20205;-59
2022/10/20 01:58:58;;;;;;;11.33;8.67;;;12.30;99.90;;;;;;5054404;28;20206;-59
2022/10/20 02:01:32;;;;;;;12.93;7.83;;;12.40;99.90;;;;;;5007222;28;20248;-59
2022/10/20 02:04:01;;;;;;;15.13;8.97;;;12.30;99.90;;;;;;5053366;28;20208;-58
2022/10/20 02:06:36;;;;;;;10.87;8.43;;;12.40;99.90;;;;;;5053195;28;20705;-59
2022/10/20 02:09:06;;;;;;;11.87;8.33;;;12.50;99.90;;;;;;5052989;28;20212;-59
2022/10/20 02:11:41;;;;;;;10.63;8.13;;;12.60;99.90;;;;;;5053156;28;20229;-59
2022/10/20 02:14:12;;;;;;;12.30;8.63;;;12.60;99.90;;;;;;5052849;28;20208;-58
2022/10/20 02:16:45;;;;;;;13.97;7.90;;;12.60;99.90;;;;;;5054017;28;20206;-59
2022/10/20 02:19:14;;;;;;;14.17;8.17;;;12.60;99.90;;;;;;5053365;28;20212;-59
2022/10/20 02:21:41;;;;;;;9.57;7.70;;;12.40;99.90;;;;;;5052832;28;20233;-59
2022/10/20 02:24:09;;;;;;;11.10;9.03;;;12.40;99.90;;;;;;5052379;28;20218;-59
2022/10/20 02:26:38;;;;;;;10.47;8.03;;;12.40;99.90;;;;;;5052932;28;20201;-61
2022/10/20 02:29:13;;;;;;;11.27;8.00;;;12.30;99.90;;;;;;5053152;28;20209;-59
2022/10/20 02:31:41;;;;;;;11.37;8.23;;;12.20;99.90;;;;;;5056081;28;20231;-59
2022/10/20 02:34:08;;;;;;;9.50;7.57;;;12.10;99.90;;;;;;5056559;28;20206;-59
2022/10/20 02:36:39;;;;;;;9.30;8.30;;;12.00;99.90;;;;;;5057250;28;20228;-59
2022/10/20 02:39:05;;;;;;;14.10;7.97;;;11.90;99.90;;;;;;5057286;28;20209;-59
2022/10/20 02:41:33;;;;;;;10.13;7.83;;;11.90;99.90;;;;;;5057195;28;20240;-60
2022/10/20 02:44:00;;;;;;;13.13;8.20;;;11.90;99.90;;;;;;5057971;28;20224;-60
2022/10/20 02:46:28;;;;;;;15.07;8.10;;;12.00;99.90;;;;;;5058609;28;20208;-60
2022/10/20 02:48:55;;;;;;;10.47;8.90;;;12.00;99.90;;;;;;5057465;28;20216;-60
2022/10/20 02:51:21;;;;;;;12.77;9.10;;;12.10;99.90;;;;;;5056946;28;20205;-60
2022/10/20 02:53:48;;;;;;;11.73;8.77;;;12.20;99.90;;;;;;5056894;28;20201;-60
2022/10/20 02:56:15;;;;;;;12.87;9.57;;;12.30;99.90;;;;;;5056070;28;20240;-59
2022/10/20 02:58:43;;;;;;;14.93;9.53;;;12.20;99.90;;;;;;5056509;28;20210;-59
2022/10/20 03:01:10;;;;;;;11.47;9.10;;;12.30;99.90;;;;;;5056537;28;20680;-60
2022/10/20 03:03:38;;;;;;;11.97;9.47;;;12.30;99.90;;;;;;5056297;28;20221;-60
2022/10/20 03:06:09;;;;;;;13.70;10.10;;;12.30;99.90;;;;;;5056113;28;20209;-60
2022/10/20 03:08:36;;;;;;;12.97;10.07;;;12.20;99.90;;;;;;5056652;28;20205;-59
2022/10/20 03:11:03;;;;;;;15.40;9.60;;;12.10;99.90;;;;;;5056382;28;20598;-60
2022/10/20 03:13:30;;;;;;;14.67;9.87;;;12.10;99.90;;;;;;5056273;28;20747;-57
2022/10/20 03:15:56;;;;;;;13.77;9.40;;;12.10;99.90;;;;;;5055938;28;20210;-59
2022/10/20 03:18:23;;;;;;;13.00;9.87;;;12.20;99.90;;;;;;5057144;28;20210;-59
2022/10/20 03:20:52;;;;;;;16.53;9.83;;;12.30;99.90;;;;;;5057969;28;20213;-60
2022/10/20 03:23:19;;;;;;;13.17;9.50;;;12.40;99.90;;;;;;5056940;28;20291;-61
2022/10/20 03:25:46;;;;;;;14.70;9.43;;;12.50;99.90;;;;;;5057317;28;20205;-59
2022/10/20 03:28:13;;;;;;;14.00;10.03;;;12.60;99.90;;;;;;5058104;28;20206;-59
2022/10/20 03:30:40;;;;;;;13.50;9.73;;;12.60;99.90;;;;;;5056820;28;20213;-61
2022/10/20 03:33:07;;;;;;;14.70;9.53;;;12.70;99.90;;;;;;5057639;28;20589;-59
2022/10/20 03:35:33;;;;;;;14.70;8.77;;;12.70;99.90;;;;;;5058148;28;20205;-57
2022/10/20 03:38:01;;;;;;;16.17;9.40;;;12.70;99.90;;;;;;5057027;28;20206;-58
2022/10/20 03:40:28;;;;;;;16.40;8.87;;;12.80;99.90;;;;;;5056477;28;20213;-59
2022/10/20 03:42:55;;;;;;;12.73;9.43;;;12.80;99.90;;;;;;5055305;28;20237;-58
2022/10/20 03:45:21;;;;;;;14.03;9.20;;;12.80;99.90;;;;;;5055760;28;20209;-59
2022/10/20 03:47:49;;;;;;;14.50;9.20;;;12.70;99.90;;;;;;5039091;28;20198;-58
2022/10/20 03:50:15;;;;;;;11.20;8.70;;;12.70;99.90;;;;;;5056997;28;20210;-59
2022/10/20 03:52:42;;;;;;;13.07;9.10;;;12.80;99.90;;;;;;5056108;28;20221;-59
2022/10/20 03:55:10;;;;;;;13.77;8.90;;;12.90;99.90;;;;;;5056335;28;20616;-59
2022/10/20 03:57:37;;;;;;;14.27;9.13;;;12.80;99.90;;;;;;5056230;28;20205;-59
2022/10/20 04:00:04;;;;;;;14.27;9.80;;;12.80;99.90;;;;;;5056194;28;20576;-59
2022/10/20 04:02:34;;;;;;;14.53;9.70;;;12.90;99.90;;;;;;5055902;28;20704;-58
2022/10/20 04:05:01;;;;;;;13.90;9.57;;;12.90;99.90;;;;;;5055887;28;20220;-59
2022/10/20 04:07:27;;;;;;;15.47;9.83;;;12.80;99.90;;;;;;5056169;28;20229;-59
2022/10/20 04:09:54;;;;;;;18.00;12.60;;;12.70;99.90;;;;;;5056500;28;20569;-59
2022/10/20 04:12:23;;;;;;;15.70;10.57;;;12.60;99.90;;;;;;5057525;28;20727;-58
2022/10/20 04:14:50;;;;;;;14.73;10.40;;;12.50;99.90;;;;;;5055729;28;20209;-59
2022/10/20 04:17:17;;;;;;;17.43;11.20;;;12.50;99.90;;;;;;5057141;28;20468;-58
2022/10/20 04:19:43;;;;;;;18.07;10.83;;;12.50;99.90;;;;;;5056613;28;20208;-59
2022/10/20 04:22:10;;;;;;;14.87;10.60;;;12.60;99.90;;;;;;5055421;28;20225;-59
2022/10/20 04:24:37;;;;;;;19.00;10.77;;;12.60;99.90;;;;;;5055657;28;20697;-63
2022/10/20 04:27:04;;;;;;;18.53;11.33;;;12.60;99.90;;;;;;5055613;28;20216;-58
2022/10/20 04:29:32;;;;;;;16.50;11.50;;;12.50;99.90;;;;;;5055705;28;20220;-58
2022/10/20 04:31:59;;;;;;;15.27;11.10;;;12.60;99.90;;;;;;5055564;28;20221;-59
2022/10/20 04:34:26;;;;;;;13.83;10.23;;;12.60;99.90;;;;;;5055022;28;20661;-58
2022/10/20 04:36:53;;;;;;;13.63;9.70;;;12.60;99.90;;;;;;5055276;28;20587;-59
2022/10/20 04:39:19;;;;;;;15.07;9.70;;;12.50;99.90;;;;;;5054727;28;20484;-59
2022/10/20 04:41:46;;;;;;;15.23;10.40;;;12.40;99.90;;;;;;5054778;28;20234;-60
2022/10/20 04:44:13;;;;;;;13.27;9.60;;;12.40;99.90;;;;;;5055319;28;20213;-58
2022/10/20 04:46:41;;;;;;;13.87;9.47;;;12.50;99.90;;;;;;5054041;28;20606;-58
2022/10/20 04:49:08;;;;;;;12.73;9.67;;;12.50;99.90;;;;;;5054471;28;20214;-58
2022/10/20 04:51:35;;;;;;;13.77;10.43;;;12.50;99.90;;;;;;5054504;28;20830;-59
2022/10/20 04:54:02;;;;;;;14.23;9.87;;;12.50;99.90;;;;;;5053175;28;20209;-58
2022/10/20 04:56:28;;;;;;;10.80;8.53;;;12.60;99.90;;;;;;5054271;28;20209;-58
2022/10/20 04:58:57;;;;;;;11.90;8.87;;;12.60;99.90;;;;;;5055418;28;20661;-59
2022/10/20 05:01:26;;;;;;;16.23;9.80;;;12.70;99.90;;;;;;5054895;28;20213;-60
2022/10/20 05:03:54;;;;;;;12.07;8.87;;;12.80;99.90;;;;;;5054871;28;20319;-58
2022/10/20 05:06:22;;;;;;;12.67;9.00;;;12.80;99.90;;;;;;5053432;28;20220;-58
2022/10/20 05:08:51;;;;;;;11.27;8.57;;;12.70;99.90;;;;;;5054021;28;20205;-58
2022/10/20 05:11:19;;;;;;;10.47;8.53;;;12.80;99.90;;;;;;5054452;28;20213;-59
2022/10/20 05:13:46;;;;;;;10.37;8.73;;;12.90;99.90;;;;;;5054178;28;20598;-59
2022/10/20 05:16:13;;;;;;;12.40;8.63;;;12.90;99.90;;;;;;5053928;28;20244;-60
2022/10/20 05:18:41;;;;;;;11.20;8.73;;;12.90;99.90;;;;;;5054480;28;20213;-60
2022/10/20 05:21:10;;;;;;;12.40;8.47;;;12.90;99.90;;;;;;5055104;28;20206;-60
2022/10/20 05:23:38;;;;;;;11.10;7.87;;;12.90;99.90;;;;;;5054713;28;20229;-59
2022/10/20 05:26:07;;;;;;;10.73;8.33;;;12.90;99.90;;;;;;5054242;28;20216;-58
2022/10/20 05:28:33;;;;;;;10.60;8.07;;;13.00;99.90;;;;;;5055083;28;20696;-59
2022/10/20 05:31:01;;;;;;;10.60;7.87;;;12.90;99.90;;;;;;5054681;28;20205;-59
2022/10/20 05:33:28;;;;;;;10.80;7.90;;;12.90;99.90;;;;;;5054437;28;20229;-59
2022/10/20 05:35:55;;;;;;;12.57;7.57;;;12.70;99.90;;;;;;5055320;28;20205;-59
2022/10/20 05:38:23;;;;;;;9.10;7.40;;;12.70;99.90;;;;;;5054873;28;20202;-59
2022/10/20 05:40:50;;;;;;;10.80;7.57;;;12.70;99.90;;;;;;5054444;28;20217;-58
2022/10/20 05:43:17;;;;;;;9.43;7.23;;;12.70;99.90;;;;;;5053891;28;20237;-58
2022/10/20 05:45:44;;;;;;;10.07;7.13;;;12.60;99.90;;;;;;5053790;28;20209;-58
2022/10/20 05:48:11;;;;;;;8.97;7.03;;;12.60;99.90;;;;;;5055315;28;20216;-58
2022/10/20 05:50:37;;;;;;;9.13;6.70;;;12.60;99.90;;;;;;5054271;28;20701;-58
2022/10/20 05:53:04;;;;;;;9.73;6.57;;;12.60;99.90;;;;;;5054017;28;20221;-58
2022/10/20 05:55:32;;;;;;;8.10;6.20;;;12.60;99.90;;;;;;5053970;28;20208;-58
2022/10/20 05:57:59;;;;;;;9.47;6.90;;;12.60;99.90;;;;;;5054053;28;20209;-59
2022/10/20 06:00:29;;;;;;;8.90;7.27;;;12.70;99.90;;;;;;5054567;28;20209;-58
2022/10/20 06:02:57;;;;;;;6.97;6.10;;;12.70;99.90;;;;;;5053523;28;20576;-58
2022/10/20 06:05:23;;;;;;;10.33;7.00;;;12.60;99.90;;;;;;5053951;28;20673;-59
2022/10/20 06:07:52;;;;;;;9.07;7.07;;;12.60;99.90;;;;;;5053676;28;20259;-59
2022/10/20 06:10:19;;;;;;;8.77;6.80;;;12.70;99.90;;;;;;5053744;28;20206;-59
2022/10/20 06:12:47;;;;;;;8.33;6.50;;;12.70;99.90;;;;;;5054511;28;20222;-58
2022/10/20 06:15:14;;;;;;;7.97;6.77;;;12.70;99.90;;;;;;5053634;28;20288;-59
2022/10/20 06:17:41;;;;;;;9.93;6.87;;;12.80;99.90;;;;;;5055760;28;20209;-60
2022/10/20 06:20:08;;;;;;;10.27;6.20;;;12.90;99.90;;;;;;5054497;28;20205;-61
2022/10/20 06:22:35;;;;;;;8.50;6.60;;;12.80;99.90;;;;;;5053928;28;20236;-58
2022/10/20 06:25:02;;;;;;;6.63;6.00;;;12.80;99.90;;;;;;5053815;28;20209;-59
2022/10/20 06:27:28;;;;;;;7.07;6.20;;;12.90;99.90;;;;;;5053837;28;20209;-57
2022/10/20 06:29:57;;;;;;;7.27;6.57;;;13.00;99.90;;;;;;5053902;28;20585;-59
2022/10/20 06:32:23;;;;;;;8.37;6.53;;;13.10;99.90;;;;;;5053305;28;20244;-59
2022/10/20 06:34:50;;;;;;;7.83;6.13;;;13.10;99.90;;;;;;5052584;28;20216;-60
2022/10/20 06:37:17;;;;;;;7.87;6.03;;;13.30;99.90;;;;;;5053317;28;20217;-58
2022/10/20 06:39:44;;;;;;;7.23;6.30;;;13.40;99.90;;;;;;5053429;28;20206;-59
2022/10/20 06:42:10;;;;;;;7.00;6.20;;;13.60;99.90;;;;;;5052857;28;20233;-59
2022/10/20 06:44:37;;;;;;;8.63;5.90;;;13.70;99.90;;;;;;5052859;28;20233;-59
2022/10/20 06:47:08;;;;;;;6.60;5.80;;;13.80;99.90;;;;;;5054990;28;20209;-61
2022/10/20 06:49:36;;;;;;;6.83;5.63;;;13.90;99.90;;;;;;5053930;28;20201;-58
2022/10/20 06:52:03;;;;;;;7.77;5.80;;;14.00;99.90;;;;;;5054147;28;20233;-59
2022/10/20 06:54:30;;;;;;;6.03;5.40;;;14.20;99.90;;;;;;5053910;28;20206;-59
2022/10/20 06:56:56;;;;;;;7.20;5.33;;;14.20;99.90;;;;;;5054384;28;20206;-59
2022/10/20 06:59:23;;;;;;;7.13;5.03;;;14.10;99.90;;;;;;5054171;28;20216;-60
2022/10/20 07:01:51;;;;;;;5.80;5.10;;;14.00;99.90;;;;;;5054323;28;20225;-61
2022/10/20 07:04:19;;;;;;;6.40;5.13;;;14.10;99.90;;;;;;5054396;28;20229;-60
2022/10/20 07:06:46;;;;;;;7.43;6.00;;;14.20;99.90;;;;;;5054951;28;20209;-60
2022/10/20 07:09:15;;;;;;;5.70;4.83;;;14.50;99.90;;;;;;5055412;28;20717;-59
2022/10/20 07:11:42;;;;;;;6.20;4.83;;;14.70;99.90;;;;;;5054532;28;20225;-58
2022/10/20 07:14:11;;;;;;;5.30;4.80;;;14.90;99.90;;;;;;5054818;28;20700;-60
2022/10/20 07:16:38;;;;;;;5.33;4.57;;;15.10;99.90;;;;;;5054398;28;20201;-60
2022/10/20 07:19:05;;;;;;;6.90;4.80;;;15.30;99.90;;;;;;5057671;28;20205;-60
2022/10/20 07:21:35;;;;;;;7.53;4.83;;;15.50;99.90;;;;;;5057057;28;20709;-59
2022/10/20 07:24:04;;;;;;;5.13;4.63;;;15.60;99.90;;;;;;5057550;28;20283;-60
2022/10/20 07:26:33;;;;;;;5.10;4.60;;;15.60;99.90;;;;;;5049585;28;20216;-59
2022/10/20 07:29:01;;;;;;;6.03;4.77;;;15.80;99.90;;;;;;5056641;28;20293;-58
2022/10/20 07:31:31;;;;;;;5.90;4.30;;;15.90;99.90;;;;;;5054824;28;20229;-60
2022/10/20 07:33:58;;;;;;;5.10;4.22;;;15.80;99.90;;;;;;5055560;28;20209;-61
2022/10/20 07:36:27;;;;;;;6.20;4.47;;;15.80;99.90;;;;;;5054409;28;20304;-61
2022/10/20 07:38:57;;;;;;;5.75;4.28;;;15.60;99.90;;;;;;5055847;28;20684;-60
2022/10/20 07:41:24;;;;;;;5.73;4.47;;;15.60;99.90;;;;;;5053857;28;20236;-60
2022/10/20 07:43:51;;;;;;;5.07;4.57;;;15.80;99.90;;;;;;5058897;22;20233;-63
2022/10/20 07:46:18;;;;;;;3.90;3.50;;;15.90;99.90;;;;;;5048798;28;20233;-62
2022/10/20 07:48:45;;;;;;;6.40;3.85;;;15.90;99.90;;;;;;5053228;28;20213;-63
2022/10/20 07:51:16;;;;;;;5.57;4.00;;;15.70;99.90;;;;;;5052733;28;20217;-63
2022/10/20 07:53:44;;;;;;;4.75;4.25;;;15.80;99.90;;;;;;5053184;28;20333;-64
2022/10/20 07:56:12;;;;;;;7.32;3.97;;;15.80;99.90;;;;;;5036169;28;20206;-64
2022/10/20 07:58:39;;;;;;;4.70;3.75;;;15.80;99.90;;;;;;5039747;28;20206;-62
2022/10/20 08:01:06;;;;;;;4.87;4.13;;;15.80;99.90;;;;;;5052826;28;20206;-63
2022/10/20 08:03:34;;;;;;;4.32;3.92;;;15.80;99.90;;;;;;5053127;28;20241;-61
2022/10/20 08:06:01;;;;;;;6.45;3.88;;;15.90;99.90;;;;;;5052111;28;20700;-63
2022/10/20 08:08:28;;;;;;;5.05;4.10;;;15.90;99.90;;;;;;5052835;28;20209;-66
2022/10/20 08:10:54;;;;;;;4.03;3.47;;;16.10;99.90;;;;;;5052595;28;20209;-64
2022/10/20 08:13:22;;;;;;;4.50;3.90;;;16.00;99.90;;;;;;5053359;28;20727;-66
2022/10/20 08:15:49;;;;;;;7.68;3.67;;;16.20;99.90;;;;;;5051834;28;20213;-64
2022/10/20 08:18:16;;;;;;;4.28;3.85;;;16.30;99.90;;;;;;5052721;28;20216;-62
2022/10/20 08:20:44;;;;;;;4.60;3.67;;;16.20;99.90;;;;;;5052061;28;20202;-63
2022/10/20 08:23:10;;;;;;;4.35;3.90;;;16.30;99.90;;;;;;5052588;28;20700;-65
2022/10/20 08:25:37;;;;;;;4.43;4.00;;;16.10;99.90;;;;;;5051935;28;20213;-64
2022/10/20 08:28:04;;;;;;;6.03;3.72;;;16.10;99.90;;;;;;5053011;28;20205;-65
2022/10/20 08:30:32;;;;;;;3.70;3.25;;;16.10;99.90;;;;;;5052160;28;20621;-66
2022/10/20 08:32:59;;;;;;;5.40;3.47;;;16.10;99.90;;;;;;5052526;28;20230;-63
2022/10/20 08:35:26;;;;;;;4.30;3.58;;;16.20;99.90;;;;;;5052140;28;20210;-64
2022/10/20 08:37:53;;;;;;;4.00;3.58;;;16.20;99.90;;;;;;5052546;28;20214;-62
2022/10/20 08:40:24;;;;;;;4.82;3.40;;;16.30;99.90;;;;;;5052437;28;20209;-62
2022/10/20 08:42:51;;;;;;;3.75;3.38;;;16.40;99.90;;;;;;5052269;28;20739;-62
2022/10/20 08:45:20;;;;;;;3.60;3.30;;;16.40;99.90;;;;;;5050952;28;20225;-66
2022/10/20 08:47:52;;;;;;;3.50;3.20;;;16.40;99.90;;;;;;5051976;28;20217;-63
2022/10/20 08:50:20;;;;;;;3.58;3.28;;;16.40;99.90;;;;;;5051792;28;20205;-62
2022/10/20 08:52:50;;;;;;;4.05;3.65;;;16.50;99.90;;;;;;5051896;28;20222;-62
2022/10/20 08:55:24;;;;;;;4.47;3.20;;;16.50;99.90;;;;;;5051355;28;20683;-64
2022/10/20 08:57:51;;;;;;;4.47;3.33;;;16.70;99.90;;;;;;5051262;28;20205;-61
2022/10/20 09:00:21;;;;;;;3.38;3.08;;;16.90;99.90;;;;;;5051852;28;20206;-64
2022/10/20 09:02:50;;;;;;;5.30;3.55;;;17.00;99.90;;;;;;5052195;28;20226;-62
2022/10/20 09:05:22;;;;;;;3.88;3.28;;;16.90;99.90;;;;;;5051445;28;20260;-62
2022/10/20 09:07:50;;;;;;;3.28;2.97;;;17.00;99.90;;;;;;5051357;28;20725;-66
2022/10/20 09:10:26;;;;;;;3.60;3.20;;;17.20;99.90;;;;;;5051042;28;20210;-65
2022/10/20 09:12:53;;;;;;;3.75;3.17;;;17.10;99.90;;;;;;5051502;28;20728;-64
2022/10/20 09:15:22;;;;;;;6.18;3.17;;;17.10;99.90;;;;;;5050866;28;20564;-62
2022/10/20 09:17:53;;;;;;;3.13;2.83;;;17.00;99.90;;;;;;5051233;28;20210;-64
2022/10/20 09:20:24;;;;;;;3.20;2.90;;;16.90;99.90;;;;;;5051531;28;20212;-64
2022/10/20 09:22:51;;;;;;;6.28;3.10;;;16.80;99.90;;;;;;5052284;28;20236;-64
2022/10/20 09:25:22;;;;;;;7.63;3.45;;;16.80;99.90;;;;;;5051217;28;20233;-66
2022/10/20 09:27:49;;;;;;;7.82;3.67;;;17.00;99.90;;;;;;5051667;28;20202;-68
2022/10/20 09:30:19;;;;;;;5.03;3.05;;;17.30;99.90;;;;;;5051350;28;20674;-62
2022/10/20 09:32:47;;;;;;;8.15;3.13;;;17.60;99.90;;;;;;5050955;28;20418;-64
2022/10/20 09:35:25;;;;;;;4.38;3.00;;;17.70;99.90;;;;;;5049734;28;20197;-63
2022/10/20 09:37:59;;;;;;;2.90;2.60;;;17.80;99.90;;;;;;5050995;28;20631;-62
2022/10/20 09:40:27;;;;;;;3.22;2.90;;;17.80;99.90;;;;;;5050481;28;20221;-64
2022/10/20 09:42:56;;;;;;;5.25;3.08;;;17.80;99.90;;;;;;5051155;28;20237;-63
2022/10/20 09:45:27;;;;;;;2.78;2.35;;;18.00;99.90;;;;;;5051223;28;20232;-60
2022/10/20 09:48:00;;;;;;;4.30;2.88;;;18.10;99.90;;;;;;5051913;28;20216;-63
2022/10/20 09:50:31;;;;;;;4.38;2.83;;;18.10;99.90;;;;;;5051665;28;20237;-61
2022/10/20 09:53:00;;;;;;;4.40;2.65;;;18.10;99.90;;;;;;5051416;28;20229;-61
2022/10/20 09:55:30;;;;;;;4.55;2.78;;;18.30;99.90;;;;;;5050739;28;20665;-61
2022/10/20 09:58:01;;;;;;;4.55;2.58;;;18.30;99.90;;;;;;5050252;28;20247;-61
2022/10/20 10:00:31;;;;;;;2.88;2.67;;;18.60;99.90;;;;;;5050608;28;20209;-61
2022/10/20 10:03:19;;;;;;;3.58;2.53;;;18.70;99.90;;;;;;5051095;28;20225;-62
2022/10/20 10:05:49;;;;;;;2.97;2.70;;;18.80;99.90;;;;;;5050375;28;20229;-61
2022/10/20 10:08:16;;;;;;;2.60;2.40;;;18.90;99.90;;;;;;5050793;28;20237;-62
2022/10/20 10:10:44;;;;;;;4.20;2.70;;;18.90;99.90;;;;;;5050311;28;20202;-62
2022/10/20 10:13:24;;;;;;;2.78;2.58;;;19.10;99.90;;;;;;5050805;28;20234;-61
2022/10/20 10:16:04;;;;;;;7.57;3.15;;;19.20;99.90;;;;;;5050587;28;20207;-62
2022/10/20 10:18:31;;;;;;;3.78;2.65;;;19.20;99.90;;;;;;5050505;28;20216;-61
2022/10/20 10:21:02;;;;;;;4.55;2.20;;;19.10;99.90;;;;;;5050202;28;20216;-62
2022/10/20 10:23:32;;;;;;;5.45;2.75;;;19.30;99.90;;;;;;5050975;28;20240;-61
2022/10/20 10:25:59;;;;;;;7.85;3.10;;;19.50;99.90;;;;;;5050020;28;20275;-62
2022/10/20 10:28:35;;;;;;;4.80;2.50;;;19.70;99.90;;;;;;5050979;28;20209;-62
2022/10/20 10:31:19;;;;;;;6.00;2.50;;;19.70;99.90;;;;;;5050462;28;20213;-62
2022/10/20 10:33:46;;;;;;;7.70;2.60;;;19.70;99.90;;;;;;5050897;28;20269;-63
2022/10/20 10:36:29;;;;;;;2.95;2.42;;;19.80;99.90;;;;;;5050234;28;20206;-64
2022/10/20 10:38:57;;;;;;;3.70;2.67;;;19.80;99.90;;;;;;5051087;28;20205;-64
2022/10/20 10:41:35;;;;;;;4.53;2.58;;;19.70;99.90;;;;;;5050093;28;20344;-64
2022/10/20 10:44:09;;;;;;;4.30;2.40;;;19.80;99.90;;;;;;5050079;28;20315;-63
2022/10/20 10:46:42;;;;;;;5.72;2.55;;;20.00;99.90;;;;;;5049491;28;20216;-64
2022/10/20 10:49:30;;;;;;;4.50;2.33;;;20.10;99.90;;;;;;5050447;28;20209;-64
2022/10/20 10:52:08;;;;;;;3.05;2.60;;;20.20;99.90;;;;;;5049903;28;20591;-64
2022/10/20 10:54:48;;;;;;;2.90;2.50;;;20.30;99.90;;;;;;5054503;28;20209;-64
2022/10/20 10:57:24;;;;;;;4.25;2.38;;;20.50;99.90;;;;;;5054231;28;20574;-64
2022/10/20 10:59:52;;;;;;;3.50;2.40;;;20.60;99.90;;;;;;5053910;28;20213;-64
2022/10/20 11:02:42;;;;;;;3.47;2.53;;;20.80;99.90;;;;;;5053745;28;20252;-63
2022/10/20 11:05:24;;;;;;;3.25;2.67;;;20.80;99.90;;;;;;5053738;28;20233;-63
2022/10/20 11:08:04;;;;;;;4.07;2.30;;;20.90;99.90;;;;;;5054021;28;20602;-64
2022/10/20 11:10:40;;;;;;;4.03;2.30;;;20.90;99.90;;;;;;5053468;28;20296;-64
2022/10/20 11:13:19;;;;;;;3.20;2.38;;;21.00;99.90;;;;;;5053670;28;20229;-63
2022/10/20 11:16:10;;;;;;;3.97;2.65;;;21.20;99.90;;;;;;5053236;28;20204;-63
2022/10/20 11:18:50;;;;;;;5.93;2.67;;;21.10;99.90;;;;;;5046034;28;20209;-64
2022/10/20 11:21:25;;;;;;;3.50;2.50;;;20.90;99.90;;;;;;5053157;28;20213;-62
2022/10/20 11:24:07;;;;;;;4.57;2.47;;;20.80;99.90;;;;;;5053096;28;20700;-65
2022/10/20 11:26:36;;;;;;;4.57;2.40;;;20.80;99.90;;;;;;5053002;28;20213;-65
2022/10/20 11:29:06;;;;;;;3.90;2.55;;;20.70;99.90;;;;;;5053452;28;20206;-66
2022/10/20 11:31:36;;;;;;;3.40;2.53;;;20.50;99.90;;;;;;5053079;28;20206;-66
2022/10/20 11:34:10;;;;;;;4.10;2.55;;;20.30;99.90;;;;;;5053229;28;20616;-66
2022/10/20 11:36:42;;;;;;;3.35;2.70;;;20.20;99.90;;;;;;5052925;28;20592;-67
2022/10/20 11:39:17;;;;;;;6.18;2.70;;;20.10;99.90;;;;;;5053438;28;20205;-65
2022/10/20 11:41:48;;;;;;;3.78;2.83;;;20.20;99.90;;;;;;5052815;28;20695;-64
2022/10/20 11:44:18;;;;;;;7.30;2.70;;;20.40;99.90;;;;;;5053286;28;20228;-65
2022/10/20 11:46:48;;;;;;;5.80;2.40;;;20.50;99.90;;;;;;5052583;28;20236;-67
2022/10/20 11:49:15;;;;;;;2.88;2.58;;;20.50;99.90;;;;;;5053265;28;20201;-66
2022/10/20 11:52:11;;;;;;;7.07;2.75;;;20.40;99.90;;;;;;5052906;28;20220;-67
2022/10/20 11:55:07;;;;;;;3.63;2.83;;;20.40;99.90;;;;;;5053664;28;20205;-66
2022/10/20 11:57:44;;;;;;;3.67;2.42;;;20.40;99.90;;;;;;5031267;28;20212;-63
2022/10/20 12:00:42;;;;;;;3.67;2.53;;;20.30;99.90;;;;;;5052752;28;20212;-65
2022/10/20 12:03:42;;;;;;;4.18;2.70;;;20.20;99.90;;;;;;5052507;28;20236;-65
2022/10/20 12:06:35;;;;;;;5.35;2.65;;;20.00;99.90;;;;;;5052418;28;20233;-67
2022/10/20 12:09:32;;;;;;;3.55;3.05;;;19.80;99.90;;;;;;5052884;28;20638;-64
2022/10/20 12:12:04;;;;;;;5.95;2.90;;;19.60;99.90;;;;;;5050970;28;20213;-64
2022/10/20 12:14:37;;;;;;;4.68;2.80;;;19.50;99.90;;;;;;5053904;28;20209;-61
2022/10/20 12:17:12;;;;;;;5.43;2.75;;;19.40;99.90;;;;;;5053297;28;20209;-67
2022/10/20 12:19:39;;;;;;;2.80;2.60;;;19.20;99.90;;;;;;5052975;28;20218;-61
2022/10/20 12:22:27;;;;;;;4.05;2.80;;;19.30;99.90;;;;;;5053131;28;20221;-63
2022/10/20 12:25:18;;;;;;;5.35;2.90;;;19.30;99.90;;;;;;5053800;28;20224;-63
2022/10/20 12:27:46;;;;;;;3.58;3.00;;;19.60;99.90;;;;;;5053433;28;20201;-64
2022/10/20 12:30:44;;;;;;;6.32;4.22;;;19.70;99.90;;;;;;5051871;28;20577;-63
2022/10/20 12:33:19;;;;;;;9.25;3.85;;;20.00;99.90;;;;;;5052778;28;20267;-67
2022/10/20 12:36:14;;;;;;;6.30;3.40;;;20.00;99.90;;;;;;5051590;28;20200;-65
2022/10/20 12:38:41;;;;;;;3.65;3.20;;;20.00;99.90;;;;;;5052033;28;20854;-63
2022/10/20 12:41:10;;;;;;;7.07;3.53;;;20.00;99.90;;;;;;5051812;28;20406;-63
2022/10/20 12:43:49;;;;;;;7.72;3.40;;;19.90;99.90;;;;;;5051737;28;20767;-63
2022/10/20 12:46:23;;;;;;;4.30;3.30;;;19.70;99.90;;;;;;5051608;28;20225;-64
2022/10/20 12:48:56;;;;;;;5.30;3.10;;;19.50;99.90;;;;;;5051700;28;20213;-65
2022/10/20 12:51:39;;;;;;;4.25;2.92;;;19.30;99.90;;;;;;5051525;28;20205;-66
2022/10/20 12:54:16;;;;;;;5.65;3.22;;;19.10;99.90;;;;;;5051877;28;20209;-65
2022/10/20 12:56:43;;;;;;;6.72;3.58;;;19.10;99.90;;;;;;5051460;28;20209;-65
2022/10/20 12:59:38;;;;;;;3.60;2.92;;;19.20;99.90;;;;;;5052247;28;20213;-65